ROMMA est une association bénévole à but non lucratif. Votre soutien est indispensable : ADHERER à ROMMA ou FAIRE un DON

Montélimar - (26, Drôme)

Basse vallée du Rhône (88 m)   Longitude: 04° 45' E   Latitude: 44° 32' N Station partenaire n°164
 

Détail journalier du     <<     >>

Température Precipitation Humidité Pression Vent Dir Rafale Dir. rafale Ensol.
Heure (°C) (mm) (%) (hPa) (km/h) (km/h) (min)
01:00 17.906110175---34NNE0
02:00 16.7067101716N35NNE0
03:00 16.306910174---24ENE0
04:00 15.906710172---19NNO0
05:00 15.007110162---16NNE0
06:00 14.307610167N21N0
07:00 13.807710167N27N0
08:00 13.7078101611N29NE10
09:00 14.4075101717N37NNO60
10:00 15.8066101618N37NO60
11:00 16.8060101720N48NE60
12:00 17.7058101722N45N55
13:00 18.8054101619N39NO27
14:00 18.9048101523N48NNE40
15:00 19.6045101525N47NE58
16:00 19.5047101520N42NE41
17:00 19.9049101518N39N41
18:00 19.9044101519NE42NNE44
19:00 19.2047101616N34NO19
20:00 17.4054101620N40N0
21:00 15.7062101715N35N0
22:00 14.8067101814N29N0
23:00 14.5068101811N24N0
minuit 13.907110183---21N0

Graphique du 08-09-2019

 

Serveur OMMA